Pine Ridge, Arkansas
Current Conditions -  °F | °C
As of 7:53 PM on Monday 24 Nov 2014 (Local Time) from KMWT Reporting Station
Clear Clear  
Wind Chill: 39°   Ceiling: Unl
Heat Index: 39°   Visibility: 10mi
Dew Point: 29°   Wind: 3mph
Humidity: 67%   Direction: 290°WNW
Pressure: 30.03"   Gusts: NA
Location:  34.6186°N, 93.7769°W
Report Text: KMWT 250153Z AUTO 29003KT 10SM CLR 04/M02 A3003 RMK AO2 SLP176 T00391017
Loading
Personal Weather Stations






























Interactive Weather Map New forecast layout! Learn more

10-Day Weather Forecast

Advertisements
Track Severe Weather on mobile